createdAt,value
2022-10-20T00:00:49.424Z,0.00
2022-10-20T00:02:49.437Z,0.00
2022-10-20T00:03:49.420Z,0.00
2022-10-20T00:04:49.381Z,0.00
2022-10-20T00:05:49.384Z,0.00
2022-10-20T00:06:49.351Z,0.00
2022-10-20T00:07:49.349Z,0.00
2022-10-20T00:08:49.425Z,0.00
2022-10-20T00:09:49.325Z,0.00
2022-10-20T00:10:49.338Z,0.00
2022-10-20T00:11:49.300Z,0.00
2022-10-20T00:12:49.289Z,0.00
2022-10-20T00:13:49.321Z,0.00
2022-10-20T00:14:49.263Z,0.00
2022-10-20T00:15:49.258Z,0.00
2022-10-20T00:16:49.243Z,0.00
2022-10-20T00:17:49.239Z,0.00
2022-10-20T00:18:49.248Z,0.00
2022-10-20T00:19:49.218Z,0.00
2022-10-20T00:20:49.205Z,0.00
2022-10-20T00:21:49.236Z,0.00
2022-10-20T00:22:49.178Z,0.00
2022-10-20T00:23:49.192Z,0.00
2022-10-20T00:24:49.164Z,0.00
2022-10-20T00:25:49.152Z,0.00
2022-10-20T00:26:49.128Z,0.00
2022-10-20T00:27:49.115Z,0.00
2022-10-20T00:28:49.132Z,0.00
2022-10-20T00:29:49.104Z,0.00
2022-10-20T00:30:49.085Z,0.00
2022-10-20T00:31:49.080Z,0.00
2022-10-20T00:32:49.065Z,0.00
2022-10-20T00:33:49.112Z,0.00
2022-10-20T00:34:49.051Z,0.00
2022-10-20T00:35:51.794Z,0.00
2022-10-20T00:36:51.309Z,0.00
2022-10-20T00:37:49.009Z,0.00
2022-10-20T00:38:49.018Z,0.00
2022-10-20T00:39:48.984Z,0.00
2022-10-20T00:40:48.985Z,0.00
2022-10-20T00:41:48.970Z,0.00
2022-10-20T00:42:48.961Z,0.00
2022-10-20T00:43:48.985Z,0.00
2022-10-20T00:44:48.946Z,0.00
2022-10-20T00:45:48.927Z,0.00
2022-10-20T00:46:48.925Z,0.00
2022-10-20T00:47:48.906Z,0.00
2022-10-20T00:48:48.892Z,0.00
2022-10-20T00:49:48.894Z,0.00
2022-10-20T00:50:48.869Z,0.00
2022-10-20T00:51:48.855Z,0.00
2022-10-20T00:52:51.525Z,0.00
2022-10-20T00:53:48.895Z,0.00
2022-10-20T00:54:48.817Z,0.00
2022-10-20T00:55:48.805Z,0.00
2022-10-20T00:56:48.853Z,0.00
2022-10-20T00:57:48.778Z,0.00
2022-10-20T00:58:48.793Z,0.00
2022-10-20T00:59:48.777Z,0.00
2022-10-20T01:00:48.772Z,0.00
2022-10-20T01:01:48.820Z,0.00
2022-10-20T01:02:48.727Z,0.00
2022-10-20T01:03:48.714Z,0.00
2022-10-20T01:04:48.704Z,0.00
2022-10-20T01:05:48.715Z,0.00
2022-10-20T01:06:48.684Z,0.00
2022-10-20T01:07:48.676Z,0.00
2022-10-20T01:08:48.716Z,0.00
2022-10-20T01:09:48.651Z,0.00
2022-10-20T01:10:48.662Z,0.00
2022-10-20T01:11:48.636Z,0.00
2022-10-20T01:12:48.629Z,0.00
2022-10-20T01:13:48.614Z,0.00
2022-10-20T01:14:48.601Z,0.00
2022-10-20T01:15:48.604Z,0.00
2022-10-20T01:16:48.580Z,0.00
2022-10-20T01:17:48.560Z,0.00
2022-10-20T01:18:48.552Z,0.00
2022-10-20T01:19:48.553Z,0.00
2022-10-20T01:20:48.554Z,0.00
2022-10-20T01:21:48.540Z,0.00
2022-10-20T01:22:48.503Z,0.00
2022-10-20T01:23:48.493Z,0.00
2022-10-20T01:24:48.516Z,0.00
2022-10-20T01:25:48.502Z,0.00
2022-10-20T01:26:48.485Z,0.00
2022-10-20T01:27:48.452Z,0.00
2022-10-20T01:28:48.757Z,0.00
2022-10-20T01:29:48.425Z,0.00
2022-10-20T01:30:48.437Z,0.00
2022-10-20T01:31:48.440Z,0.00
2022-10-20T01:32:48.457Z,0.00
2022-10-20T01:33:48.404Z,0.00
2022-10-20T01:34:50.664Z,0.00
2022-10-20T01:35:48.383Z,0.00
2022-10-20T01:36:48.358Z,0.00
2022-10-20T01:37:49.447Z,0.00
2022-10-20T01:38:48.347Z,0.00
2022-10-20T01:39:48.329Z,0.00
2022-10-20T01:40:48.307Z,0.00
2022-10-20T01:41:48.324Z,0.00
2022-10-20T01:42:48.301Z,0.00
2022-10-20T01:43:48.273Z,0.00
2022-10-20T01:44:48.270Z,0.00
2022-10-20T01:45:48.253Z,0.00
2022-10-20T01:46:48.255Z,0.00
2022-10-20T01:47:48.257Z,0.00
2022-10-20T01:48:48.213Z,0.00
2022-10-20T01:49:48.198Z,0.00
2022-10-20T01:50:48.196Z,0.00
2022-10-20T01:51:48.207Z,0.00
2022-10-20T01:52:48.170Z,0.00
2022-10-20T01:53:48.178Z,0.00
2022-10-20T01:54:48.146Z,0.00
2022-10-20T01:55:48.138Z,0.00
2022-10-20T01:56:48.129Z,0.00
2022-10-20T01:57:48.110Z,0.00
2022-10-20T01:58:48.120Z,0.00
2022-10-20T01:59:48.113Z,0.00
2022-10-20T02:00:48.133Z,0.00
2022-10-20T02:01:48.126Z,0.00
2022-10-20T02:02:48.057Z,0.00
2022-10-20T02:03:48.065Z,0.00
2022-10-20T02:04:48.032Z,0.00
2022-10-20T02:05:48.016Z,0.00
2022-10-20T02:06:48.031Z,0.00
2022-10-20T02:07:48.015Z,0.00
2022-10-20T02:08:48.072Z,0.00
2022-10-20T02:09:48.010Z,0.00
2022-10-20T02:10:47.968Z,0.00
2022-10-20T02:11:47.951Z,0.00
2022-10-20T02:12:47.961Z,0.00
2022-10-20T02:13:47.947Z,0.00
2022-10-20T02:14:47.916Z,0.00
2022-10-20T02:15:47.906Z,0.00
2022-10-20T02:16:48.815Z,0.00
2022-10-20T02:17:47.887Z,0.00
2022-10-20T02:18:47.966Z,0.00
2022-10-20T02:19:47.971Z,0.00
2022-10-20T02:20:47.854Z,0.00
2022-10-20T02:21:47.858Z,0.00
2022-10-20T02:22:47.843Z,0.00
2022-10-20T02:23:47.835Z,0.00
2022-10-20T02:24:47.812Z,0.00
2022-10-20T02:25:47.794Z,0.00
2022-10-20T02:26:47.791Z,0.00
2022-10-20T02:27:47.894Z,0.00
2022-10-20T02:28:47.783Z,0.00
2022-10-20T02:29:47.758Z,0.00
2022-10-20T02:30:47.759Z,0.00
2022-10-20T02:31:47.728Z,0.00
2022-10-20T02:32:47.741Z,0.00
2022-10-20T02:33:47.734Z,0.00
2022-10-20T02:34:47.704Z,0.00
2022-10-20T02:35:47.690Z,0.00
2022-10-20T02:36:47.696Z,0.00
2022-10-20T02:37:47.673Z,0.00
2022-10-20T02:38:47.654Z,0.00
2022-10-20T02:39:47.669Z,0.00
2022-10-20T02:40:47.637Z,0.00
2022-10-20T02:41:47.628Z,0.00
2022-10-20T02:42:47.621Z,0.00
2022-10-20T02:43:47.613Z,0.00
2022-10-20T02:44:47.606Z,0.00
2022-10-20T02:45:47.575Z,0.00
2022-10-20T02:46:47.568Z,0.00
2022-10-20T02:47:47.549Z,0.00
2022-10-20T02:48:47.555Z,0.00
2022-10-20T02:49:47.550Z,0.00
2022-10-20T02:50:47.519Z,0.00
2022-10-20T02:51:47.513Z,0.00
2022-10-20T02:52:47.503Z,0.00
2022-10-20T02:53:47.489Z,0.00
2022-10-20T02:54:47.496Z,0.00
2022-10-20T02:55:47.466Z,0.00
2022-10-20T02:56:47.460Z,0.00
2022-10-20T02:57:47.444Z,0.00
2022-10-20T02:58:47.465Z,0.00
2022-10-20T02:59:47.444Z,0.00
2022-10-20T03:00:47.425Z,0.00
2022-10-20T03:01:47.443Z,0.00
2022-10-20T03:02:47.384Z,0.00
2022-10-20T03:03:47.409Z,0.00
2022-10-20T03:04:47.381Z,0.00
2022-10-20T03:05:47.378Z,0.00
2022-10-20T03:06:47.339Z,0.00
2022-10-20T03:07:47.349Z,0.00
2022-10-20T03:08:47.355Z,0.00
2022-10-20T03:09:47.325Z,0.00
2022-10-20T03:10:47.314Z,0.00
2022-10-20T03:11:47.280Z,0.00
2022-10-20T03:12:47.275Z,0.00
2022-10-20T03:13:47.257Z,0.00
2022-10-20T03:14:47.253Z,0.00
2022-10-20T03:15:47.254Z,0.00
2022-10-20T03:16:47.256Z,0.00
2022-10-20T03:17:47.219Z,0.00
2022-10-20T03:18:47.219Z,0.00
2022-10-20T03:19:47.198Z,0.00
2022-10-20T03:20:47.198Z,0.00
2022-10-20T03:21:47.194Z,0.00
2022-10-20T03:22:47.164Z,0.00
2022-10-20T03:23:47.163Z,0.00
2022-10-20T03:24:47.139Z,0.00
2022-10-20T03:25:47.150Z,0.00
2022-10-20T03:26:47.139Z,0.00
2022-10-20T03:27:47.100Z,0.00
2022-10-20T03:28:47.098Z,0.00
2022-10-20T03:29:47.085Z,0.00
2022-10-20T03:30:47.081Z,0.00
2022-10-20T03:31:47.140Z,0.00
2022-10-20T03:32:47.043Z,0.00
2022-10-20T03:33:47.037Z,0.00
2022-10-20T03:34:47.034Z,0.00
2022-10-20T03:35:47.032Z,0.00
2022-10-20T03:36:47.042Z,0.00
2022-10-20T03:37:47.013Z,0.00
2022-10-20T03:38:46.999Z,0.00
2022-10-20T03:39:54.689Z,0.00
2022-10-20T03:40:46.965Z,0.00
2022-10-20T03:41:46.945Z,0.00
2022-10-20T03:42:46.955Z,0.00
2022-10-20T03:43:46.927Z,0.00
2022-10-20T03:44:46.920Z,0.00
2022-10-20T03:45:46.916Z,0.00
2022-10-20T03:46:46.915Z,0.00
2022-10-20T03:47:46.877Z,0.00
2022-10-20T03:48:46.866Z,0.00
2022-10-20T03:49:46.885Z,0.00
2022-10-20T03:50:46.844Z,0.00
2022-10-20T03:51:46.849Z,0.00
2022-10-20T03:52:46.839Z,0.00
2022-10-20T03:53:46.828Z,0.00
2022-10-20T03:54:46.800Z,0.00
2022-10-20T03:55:46.812Z,0.00
2022-10-20T03:56:46.795Z,0.00
2022-10-20T03:57:47.366Z,0.00
2022-10-20T03:58:46.754Z,0.00
2022-10-20T03:59:46.745Z,0.00
2022-10-20T04:00:46.734Z,0.00
2022-10-20T04:01:50.047Z,0.00
2022-10-20T04:02:46.709Z,0.00
2022-10-20T04:03:46.741Z,0.00
2022-10-20T04:04:46.684Z,0.00
2022-10-20T04:05:46.677Z,0.00
2022-10-20T04:06:46.683Z,0.00
2022-10-20T04:07:46.701Z,0.00
2022-10-20T04:08:46.713Z,0.00
2022-10-20T04:09:46.628Z,0.00
2022-10-20T04:10:46.630Z,0.00
2022-10-20T04:11:46.608Z,0.00
2022-10-20T04:12:46.617Z,0.00
2022-10-20T04:13:46.595Z,0.00
2022-10-20T04:14:46.577Z,0.00
2022-10-20T04:15:46.565Z,0.00
2022-10-20T04:16:46.571Z,0.00
2022-10-20T04:17:46.565Z,0.00
2022-10-20T04:18:46.553Z,0.00
2022-10-20T04:19:46.537Z,0.00
2022-10-20T04:20:46.507Z,0.00
2022-10-20T04:21:46.499Z,0.00
2022-10-20T04:22:46.505Z,0.00
2022-10-20T04:23:46.471Z,0.00
2022-10-20T04:24:46.481Z,0.00
2022-10-20T04:25:46.483Z,0.00
2022-10-20T04:26:46.478Z,0.00
2022-10-20T04:27:46.435Z,0.00
2022-10-20T04:28:46.440Z,0.00
2022-10-20T04:29:46.409Z,0.00
2022-10-20T04:30:46.397Z,0.00
2022-10-20T04:31:49.008Z,0.00
2022-10-20T04:32:46.378Z,0.00
2022-10-20T04:33:46.384Z,0.00
2022-10-20T04:34:46.353Z,0.00
2022-10-20T04:35:46.415Z,0.00
2022-10-20T04:36:46.333Z,0.00
2022-10-20T04:37:46.331Z,0.00
2022-10-20T04:38:46.331Z,0.00
2022-10-20T04:39:46.316Z,0.00
2022-10-20T04:40:46.308Z,0.00
2022-10-20T04:41:46.276Z,0.00
2022-10-20T04:42:46.295Z,0.00
2022-10-20T04:43:46.266Z,0.00
2022-10-20T04:44:46.302Z,0.00
2022-10-20T04:45:46.231Z,0.00
2022-10-20T04:46:46.243Z,0.00
2022-10-20T04:47:46.206Z,0.00
2022-10-20T04:48:46.204Z,0.00
2022-10-20T04:49:46.198Z,0.00
2022-10-20T04:50:46.195Z,0.00
2022-10-20T04:51:46.185Z,0.00
2022-10-20T04:52:46.154Z,0.00
2022-10-20T04:53:46.141Z,0.00
2022-10-20T04:54:46.137Z,0.00
2022-10-20T04:55:46.156Z,0.00
2022-10-20T04:56:46.132Z,0.00
2022-10-20T04:57:46.117Z,0.00
2022-10-20T04:58:46.087Z,0.00
2022-10-20T04:59:46.080Z,0.00
2022-10-20T05:00:46.086Z,0.00
2022-10-20T05:01:46.151Z,0.00
2022-10-20T05:02:46.042Z,0.00
2022-10-20T05:03:46.031Z,0.00
2022-10-20T05:04:46.022Z,0.00
2022-10-20T05:05:46.050Z,0.00
2022-10-20T05:06:46.000Z,4.00
2022-10-20T05:07:45.998Z,0.00
2022-10-20T05:08:46.033Z,0.00
2022-10-20T05:09:46.003Z,4.00
2022-10-20T05:10:45.969Z,4.00
2022-10-20T05:11:45.966Z,0.00
2022-10-20T05:12:45.951Z,4.00
2022-10-20T05:13:45.933Z,4.00
2022-10-20T05:14:45.932Z,4.00
2022-10-20T05:15:45.924Z,4.00
2022-10-20T05:16:45.889Z,8.00
2022-10-20T05:17:45.879Z,8.00
2022-10-20T05:18:45.886Z,12.00
2022-10-20T05:19:45.973Z,12.00
2022-10-20T05:21:07.186Z,12.00
2022-10-20T05:21:46.980Z,16.00
2022-10-20T05:22:45.833Z,20.00
2022-10-20T05:23:45.824Z,20.00
2022-10-20T05:24:45.802Z,24.00
2022-10-20T05:25:45.806Z,28.00
2022-10-20T05:26:45.791Z,32.00
2022-10-20T05:27:45.805Z,36.00
2022-10-20T05:28:45.774Z,44.00
2022-10-20T05:29:45.762Z,48.00
2022-10-20T05:30:45.761Z,56.00
2022-10-20T05:31:45.721Z,64.00
2022-10-20T05:32:45.729Z,72.00
2022-10-20T05:33:45.699Z,80.00
2022-10-20T05:34:45.801Z,88.00
2022-10-20T05:35:45.694Z,96.00
2022-10-20T05:36:45.667Z,108.00
2022-10-20T05:37:45.657Z,112.00
2022-10-20T05:38:46.687Z,120.00
2022-10-20T05:39:45.667Z,132.00
2022-10-20T05:40:45.620Z,144.00
2022-10-20T05:41:45.635Z,156.00
2022-10-20T05:42:45.600Z,172.00
2022-10-20T05:43:45.586Z,188.00
2022-10-20T05:44:45.613Z,204.00
2022-10-20T05:45:45.570Z,216.00
2022-10-20T05:46:45.585Z,224.00
2022-10-20T05:47:45.546Z,240.00
2022-10-20T05:48:45.537Z,256.00
2022-10-20T05:49:45.526Z,272.00
2022-10-20T05:51:45.525Z,308.00
2022-10-20T05:52:45.488Z,328.00
2022-10-20T05:53:45.475Z,348.00
2022-10-20T05:54:45.462Z,372.00
2022-10-20T05:55:45.477Z,396.00
2022-10-20T05:56:45.467Z,412.00
2022-10-20T05:57:45.432Z,436.00
2022-10-20T05:58:45.421Z,456.00
2022-10-20T05:59:45.413Z,472.00
2022-10-20T06:00:45.430Z,496.00
2022-10-20T06:01:45.389Z,512.00
2022-10-20T06:02:45.401Z,536.00
2022-10-20T06:03:45.384Z,552.00
2022-10-20T06:04:45.353Z,572.00
2022-10-20T06:05:45.353Z,592.00
2022-10-20T06:06:45.329Z,608.00
2022-10-20T06:07:45.322Z,628.00
2022-10-20T06:08:45.383Z,640.00
2022-10-20T06:09:45.302Z,660.00
2022-10-20T06:10:45.287Z,680.00
2022-10-20T06:11:45.302Z,704.00
2022-10-20T06:12:45.267Z,724.00
2022-10-20T06:13:47.220Z,744.00
2022-10-20T06:14:45.279Z,760.00
2022-10-20T06:15:45.233Z,772.00
2022-10-20T06:16:45.236Z,788.00
2022-10-20T06:17:45.212Z,800.00
2022-10-20T06:18:45.200Z,816.00
2022-10-20T06:19:45.207Z,836.00
2022-10-20T06:20:45.206Z,856.00
2022-10-20T06:21:45.179Z,880.00
2022-10-20T06:22:45.162Z,908.00
2022-10-20T06:23:45.142Z,932.00
2022-10-20T06:24:45.153Z,952.00
2022-10-20T06:25:45.122Z,956.00
2022-10-20T06:26:45.149Z,960.00
2022-10-20T06:27:45.103Z,964.00
2022-10-20T06:28:45.087Z,972.00
2022-10-20T06:29:45.101Z,976.00
2022-10-20T06:30:45.065Z,984.00
2022-10-20T06:31:45.057Z,996.00
2022-10-20T06:32:45.077Z,1004.00
2022-10-20T06:33:45.040Z,1016.00
2022-10-20T06:34:45.021Z,1020.00
2022-10-20T06:35:45.031Z,1028.00
2022-10-20T06:36:45.017Z,1024.00
2022-10-20T06:37:44.997Z,1032.00
2022-10-20T06:38:45.002Z,1028.00
2022-10-20T06:39:44.964Z,1032.00
2022-10-20T06:40:44.955Z,1032.00
2022-10-20T06:41:44.998Z,1036.00
2022-10-20T06:42:44.990Z,1036.00
2022-10-20T06:43:44.934Z,1032.00
2022-10-20T06:44:44.905Z,1020.00
2022-10-20T06:45:44.894Z,1016.00
2022-10-20T06:46:44.903Z,1024.00
2022-10-20T06:47:44.888Z,1032.00
2022-10-20T06:48:44.891Z,1052.00
2022-10-20T06:49:44.879Z,1064.00
2022-10-20T06:50:44.838Z,1084.00
2022-10-20T06:51:44.848Z,1112.00
2022-10-20T06:52:44.840Z,1132.00
2022-10-20T06:53:46.707Z,1144.00
2022-10-20T06:54:44.802Z,1156.00
2022-10-20T06:55:44.791Z,1148.00
2022-10-20T06:56:44.801Z,1136.00
2022-10-20T06:57:44.756Z,1116.00
2022-10-20T06:58:44.765Z,1108.00
2022-10-20T06:59:44.733Z,1096.00
2022-10-20T07:00:44.735Z,1084.00
2022-10-20T07:01:44.780Z,1080.00
2022-10-20T07:02:44.709Z,1064.00
2022-10-20T07:03:44.725Z,1068.00
2022-10-20T07:04:44.888Z,1076.00
2022-10-20T07:05:44.794Z,1080.00
2022-10-20T07:06:44.654Z,1076.00
2022-10-20T07:07:44.648Z,1076.00
2022-10-20T07:08:44.712Z,1092.00
2022-10-20T07:09:44.771Z,1100.00
2022-10-20T07:10:44.631Z,1124.00
2022-10-20T07:11:44.597Z,1140.00
2022-10-20T07:12:45.299Z,1164.00
2022-10-20T07:13:44.576Z,1176.00
2022-10-20T07:14:44.570Z,1192.00
2022-10-20T07:15:44.553Z,1208.00
2022-10-20T07:16:44.585Z,1212.00
2022-10-20T07:17:44.538Z,1228.00
2022-10-20T07:19:47.323Z,1252.00
2022-10-20T07:20:44.525Z,1268.00
2022-10-20T07:21:45.946Z,1284.00
2022-10-20T07:22:44.493Z,1296.00
2022-10-20T07:23:44.458Z,1296.00
2022-10-20T07:24:44.470Z,1320.00
2022-10-20T07:25:44.451Z,1340.00
2022-10-20T07:26:44.424Z,1352.00
2022-10-20T07:27:44.445Z,1352.00
2022-10-20T07:28:44.408Z,1352.00
2022-10-20T07:29:44.394Z,1360.00
2022-10-20T07:30:44.386Z,1388.00
2022-10-20T07:31:44.389Z,1412.00
2022-10-20T07:32:44.361Z,1456.00
2022-10-20T07:33:44.500Z,1496.00
2022-10-20T07:34:44.336Z,1524.00
2022-10-20T07:35:44.333Z,1556.00
2022-10-20T07:36:44.351Z,1576.00
2022-10-20T07:37:44.308Z,1596.00
2022-10-20T07:38:44.367Z,1608.00
2022-10-20T07:39:44.314Z,1628.00
2022-10-20T07:40:44.273Z,1628.00
2022-10-20T07:41:44.268Z,1632.00
2022-10-20T07:42:44.246Z,1640.00
2022-10-20T07:43:44.255Z,1644.00
2022-10-20T07:44:44.257Z,1644.00
2022-10-20T07:45:44.218Z,1648.00
2022-10-20T07:46:44.229Z,1644.00
2022-10-20T07:47:46.885Z,1636.00
2022-10-20T07:48:44.176Z,1640.00
2022-10-20T07:49:45.070Z,1632.00
2022-10-20T07:50:44.205Z,1640.00
2022-10-20T07:51:44.167Z,1644.00
2022-10-20T07:52:44.153Z,1644.00
2022-10-20T07:53:44.124Z,1652.00
2022-10-20T07:54:44.136Z,1648.00
2022-10-20T07:55:44.102Z,1636.00
2022-10-20T07:56:44.094Z,1636.00
2022-10-20T07:57:44.077Z,1636.00
2022-10-20T07:58:44.069Z,1648.00
2022-10-20T07:59:44.106Z,1668.00
2022-10-20T08:00:44.059Z,1680.00
2022-10-20T08:01:44.464Z,1692.00
2022-10-20T08:02:44.034Z,1704.00
2022-10-20T08:03:44.029Z,1712.00
2022-10-20T08:04:44.032Z,1732.00
2022-10-20T08:05:43.998Z,1748.00
2022-10-20T08:06:43.975Z,1768.00
2022-10-20T08:07:43.975Z,1792.00
2022-10-20T08:08:44.002Z,1828.00
2022-10-20T08:10:43.946Z,1888.00
2022-10-20T08:11:43.943Z,1904.00
2022-10-20T08:12:43.910Z,1916.00
2022-10-20T08:13:43.907Z,1928.00
2022-10-20T08:14:43.972Z,1940.00
2022-10-20T08:15:43.983Z,1936.00
2022-10-20T08:16:46.313Z,1940.00
2022-10-20T08:17:43.877Z,1936.00
2022-10-20T08:18:45.820Z,1940.00
2022-10-20T08:19:47.813Z,1940.00
2022-10-20T08:20:43.836Z,1932.00
2022-10-20T08:21:43.831Z,1920.00
2022-10-20T08:22:43.799Z,1924.00
2022-10-20T08:23:43.825Z,1920.00
2022-10-20T08:24:43.800Z,1920.00
2022-10-20T08:25:43.781Z,1924.00
2022-10-20T08:26:43.784Z,1928.00
2022-10-20T08:27:43.785Z,1924.00
2022-10-20T08:28:43.745Z,1916.00
2022-10-20T08:29:50.783Z,1912.00
2022-10-20T08:30:44.717Z,1904.00
2022-10-20T08:31:43.717Z,1892.00
2022-10-20T08:32:43.700Z,1888.00
2022-10-20T08:33:43.675Z,1880.00
2022-10-20T08:34:43.722Z,1892.00
2022-10-20T08:35:43.668Z,1884.00
2022-10-20T08:36:43.641Z,1876.00
2022-10-20T08:37:43.635Z,1880.00
2022-10-20T08:38:43.664Z,1872.00
2022-10-20T08:39:43.627Z,1868.00
2022-10-20T08:40:43.610Z,1860.00
2022-10-20T08:42:06.458Z,1868.00
2022-10-20T08:42:44.582Z,1872.00
2022-10-20T08:43:43.562Z,1864.00
2022-10-20T08:44:43.579Z,1864.00
2022-10-20T08:45:43.551Z,1864.00
2022-10-20T08:46:43.540Z,1872.00
2022-10-20T08:47:43.516Z,1884.00
2022-10-20T08:48:43.510Z,1892.00
2022-10-20T08:49:43.538Z,1900.00
2022-10-20T08:50:43.504Z,1876.00
2022-10-20T08:51:43.485Z,1864.00
2022-10-20T08:52:43.464Z,1868.00
2022-10-20T08:53:43.456Z,1868.00
2022-10-20T08:54:43.466Z,1868.00
2022-10-20T08:55:43.461Z,1864.00
2022-10-20T08:56:44.529Z,1872.00
2022-10-20T08:57:43.713Z,1872.00
2022-10-20T08:58:43.393Z,1872.00
2022-10-20T08:59:43.398Z,1872.00
2022-10-20T09:00:43.395Z,1868.00
2022-10-20T09:01:43.498Z,1856.00
2022-10-20T09:02:43.389Z,1856.00
2022-10-20T09:03:43.342Z,1808.00
2022-10-20T09:05:43.314Z,1812.00
2022-10-20T09:06:43.322Z,1792.00
2022-10-20T09:07:43.312Z,1800.00
2022-10-20T09:08:43.346Z,1804.00
2022-10-20T09:09:43.293Z,1796.00
2022-10-20T09:10:43.259Z,1804.00
2022-10-20T09:11:43.277Z,1784.00
2022-10-20T09:12:43.257Z,1756.00
2022-10-20T09:13:43.283Z,1744.00
2022-10-20T09:14:43.311Z,1724.00
2022-10-20T09:15:43.383Z,1724.00
2022-10-20T09:16:59.083Z,1716.00
2022-10-20T09:17:44.217Z,1712.00
2022-10-20T09:18:43.182Z,1704.00
2022-10-20T09:19:43.173Z,1700.00
2022-10-20T09:20:43.187Z,1684.00
2022-10-20T09:21:43.131Z,1660.00
2022-10-20T09:22:43.138Z,1632.00
2022-10-20T09:23:43.197Z,1604.00
2022-10-20T09:24:43.180Z,1584.00
2022-10-20T09:25:43.104Z,1560.00
2022-10-20T09:26:58.022Z,1540.00
2022-10-20T09:27:44.070Z,1504.00
2022-10-20T09:29:02.172Z,1472.00
2022-10-20T09:29:44.041Z,1448.00
2022-10-20T09:30:43.052Z,1428.00
2022-10-20T09:31:43.028Z,1408.00
2022-10-20T09:32:47.569Z,1396.00
2022-10-20T09:33:44.026Z,1372.00
2022-10-20T09:34:43.048Z,1356.00
2022-10-20T09:35:42.996Z,1336.00
2022-10-20T09:36:42.962Z,1320.00
2022-10-20T09:37:42.955Z,1312.00
2022-10-20T09:38:42.967Z,1292.00
2022-10-20T09:39:42.932Z,1280.00
2022-10-20T09:40:42.919Z,1276.00
2022-10-20T09:41:42.911Z,1268.00
2022-10-20T09:42:42.901Z,1252.00
2022-10-20T09:43:42.910Z,1256.00
2022-10-20T09:44:42.903Z,1244.00
2022-10-20T09:45:42.874Z,1240.00
2022-10-20T09:46:42.852Z,1232.00
2022-10-20T09:47:42.852Z,1224.00
2022-10-20T09:48:42.846Z,1228.00
2022-10-20T09:49:42.819Z,1236.00
2022-10-20T09:50:42.826Z,1248.00
2022-10-20T09:51:42.822Z,1248.00
2022-10-20T09:52:42.785Z,1232.00
2022-10-20T09:53:42.773Z,1236.00
2022-10-20T09:54:42.825Z,1228.00
2022-10-20T09:55:42.775Z,1232.00
2022-10-20T09:56:42.746Z,1220.00
2022-10-20T09:57:42.728Z,1220.00
2022-10-20T09:58:42.714Z,1236.00
2022-10-20T09:59:42.726Z,1228.00
2022-10-20T10:00:42.783Z,1216.00
2022-10-20T10:01:42.705Z,1208.00
2022-10-20T10:02:42.673Z,1192.00
2022-10-20T10:03:42.699Z,1156.00
2022-10-20T10:04:42.650Z,1164.00
2022-10-20T10:05:42.640Z,1200.00
2022-10-20T10:06:42.650Z,1208.00
2022-10-20T10:07:42.614Z,1216.00
2022-10-20T10:08:42.683Z,1212.00
2022-10-20T10:09:42.613Z,1220.00
2022-10-20T10:10:42.598Z,1216.00
2022-10-20T10:11:42.568Z,1216.00
2022-10-20T10:12:42.569Z,1216.00
2022-10-20T10:13:42.551Z,1192.00
2022-10-20T10:14:42.543Z,1188.00
2022-10-20T10:15:42.546Z,1180.00
2022-10-20T10:16:42.531Z,1160.00
2022-10-20T10:17:42.504Z,1120.00
2022-10-20T10:18:46.766Z,1112.00
2022-10-20T10:19:43.484Z,1088.00
2022-10-20T10:20:42.504Z,1084.00
2022-10-20T10:21:42.456Z,1120.00
2022-10-20T10:22:42.460Z,1148.00
2022-10-20T10:23:42.440Z,1168.00
2022-10-20T10:24:42.431Z,1208.00
2022-10-20T10:25:42.430Z,1220.00
2022-10-20T10:26:42.432Z,1224.00
2022-10-20T10:27:42.394Z,1212.00
2022-10-20T10:28:42.378Z,1216.00
2022-10-20T10:29:42.373Z,1224.00
2022-10-20T10:30:45.719Z,1240.00
2022-10-20T10:31:43.349Z,1236.00
2022-10-20T10:32:42.360Z,1236.00
2022-10-20T10:33:42.384Z,1264.00
2022-10-20T10:34:42.336Z,1260.00
2022-10-20T10:35:42.325Z,1248.00
2022-10-20T10:36:42.315Z,1248.00
2022-10-20T10:37:44.920Z,1252.00
2022-10-20T10:38:42.271Z,1252.00
2022-10-20T10:39:42.256Z,1248.00
2022-10-20T10:40:42.283Z,1244.00
2022-10-20T10:41:42.253Z,1264.00
2022-10-20T10:42:42.232Z,1240.00
2022-10-20T10:43:44.976Z,1268.00
2022-10-20T10:44:43.221Z,1280.00
2022-10-20T10:45:42.187Z,1284.00
2022-10-20T10:47:42.487Z,1296.00
2022-10-20T10:48:42.168Z,1280.00
2022-10-20T10:49:42.166Z,1288.00
2022-10-20T10:50:42.150Z,1300.00
2022-10-20T10:51:42.146Z,1312.00
2022-10-20T10:52:42.107Z,1316.00
2022-10-20T10:53:42.098Z,1328.00
2022-10-20T10:54:42.107Z,1336.00
2022-10-20T10:55:48.654Z,1348.00
2022-10-20T10:56:43.077Z,1356.00
2022-10-20T10:57:42.055Z,1376.00
2022-10-20T10:58:42.045Z,1380.00
2022-10-20T10:59:42.054Z,1384.00
2022-10-20T11:00:42.045Z,1380.00
2022-10-20T11:01:42.035Z,1372.00
2022-10-20T11:02:41.992Z,1368.00
2022-10-20T11:03:41.988Z,1376.00
2022-10-20T11:04:41.999Z,1372.00
2022-10-20T11:05:41.959Z,1380.00
2022-10-20T11:06:42.014Z,1400.00
2022-10-20T11:07:41.945Z,1392.00
2022-10-20T11:08:41.974Z,1388.00
2022-10-20T11:09:41.921Z,1392.00
2022-10-20T11:10:41.903Z,1396.00
2022-10-20T11:11:41.893Z,1384.00
2022-10-20T11:12:41.911Z,1380.00
2022-10-20T11:13:41.868Z,1380.00
2022-10-20T11:14:41.885Z,1400.00
2022-10-20T11:15:41.868Z,1400.00
2022-10-20T11:16:41.834Z,1412.00
2022-10-20T11:17:41.822Z,1412.00
2022-10-20T11:18:41.822Z,1436.00
2022-10-20T11:19:41.819Z,1440.00
2022-10-20T11:20:41.811Z,1436.00
2022-10-20T11:21:41.779Z,1428.00
2022-10-20T11:22:41.766Z,1416.00
2022-10-20T11:23:41.755Z,1384.00
2022-10-20T11:24:41.770Z,1448.00
2022-10-20T11:25:41.731Z,1480.00
2022-10-20T11:26:41.744Z,1512.00
2022-10-20T11:27:42.324Z,1520.00
2022-10-20T11:28:41.702Z,1560.00
2022-10-20T11:29:41.686Z,1528.00
2022-10-20T11:30:41.687Z,1432.00
2022-10-20T11:31:41.689Z,1416.00
2022-10-20T11:32:41.676Z,1524.00
2022-10-20T11:33:41.667Z,1648.00
2022-10-20T11:34:41.683Z,1680.00
2022-10-20T11:35:41.622Z,1708.00
2022-10-20T11:36:41.623Z,1716.00
2022-10-20T11:37:41.620Z,1724.00
2022-10-20T11:38:41.587Z,1740.00
2022-10-20T11:39:41.576Z,1768.00
2022-10-20T11:40:41.570Z,1784.00
2022-10-20T11:42:41.575Z,1804.00
2022-10-20T11:43:41.603Z,1800.00
2022-10-20T11:44:41.524Z,1820.00
2022-10-20T11:45:41.511Z,1828.00
2022-10-20T11:46:41.497Z,1844.00
2022-10-20T11:47:41.491Z,1852.00
2022-10-20T11:48:41.513Z,1868.00
2022-10-20T11:49:41.461Z,1868.00
2022-10-20T11:50:41.457Z,1876.00
2022-10-20T11:51:41.441Z,1904.00
2022-10-20T11:52:41.471Z,1936.00
2022-10-20T11:53:41.418Z,1948.00
2022-10-20T11:54:41.433Z,1960.00
2022-10-20T11:55:41.399Z,1972.00
2022-10-20T11:56:41.387Z,1988.00
2022-10-20T11:57:41.396Z,2000.00
2022-10-20T11:58:41.380Z,2008.00
2022-10-20T11:59:41.352Z,2016.00
2022-10-20T12:00:41.350Z,2028.00
2022-10-20T12:01:41.432Z,2052.00
2022-10-20T12:02:41.357Z,2060.00
2022-10-20T12:03:41.323Z,2076.00
2022-10-20T12:04:41.297Z,2044.00
2022-10-20T12:05:41.283Z,2120.00
2022-10-20T12:06:41.324Z,2072.00
2022-10-20T12:07:41.259Z,2088.00
2022-10-20T12:08:41.382Z,2108.00
2022-10-20T12:09:41.241Z,2064.00
2022-10-20T12:10:41.333Z,2096.00
2022-10-20T12:11:41.216Z,1996.00
2022-10-20T12:12:41.227Z,1848.00
2022-10-20T12:13:41.215Z,1796.00
2022-10-20T12:14:43.226Z,1880.00
2022-10-20T12:15:41.175Z,1956.00
2022-10-20T12:16:41.181Z,1888.00
2022-10-20T12:17:41.150Z,2036.00
2022-10-20T12:18:41.167Z,2064.00
2022-10-20T12:19:41.127Z,2032.00
2022-10-20T12:20:41.120Z,2052.00
2022-10-20T12:21:41.107Z,2172.00
2022-10-20T12:22:41.095Z,2136.00
2022-10-20T12:23:41.106Z,2152.00
2022-10-20T12:24:41.091Z,2152.00
2022-10-20T12:25:41.063Z,2144.00
2022-10-20T12:26:43.913Z,2144.00
2022-10-20T12:27:41.077Z,2132.00
2022-10-20T12:28:41.032Z,2128.00
2022-10-20T12:29:41.037Z,2120.00
2022-10-20T12:30:41.016Z,2124.00
2022-10-20T12:31:40.993Z,2096.00
2022-10-20T12:32:41.002Z,2140.00
2022-10-20T12:33:40.970Z,2112.00
2022-10-20T12:34:41.009Z,2096.00
2022-10-20T12:35:40.949Z,2092.00
2022-10-20T12:36:40.944Z,2116.00
2022-10-20T12:37:43.475Z,2116.00
2022-10-20T12:38:41.917Z,2120.00
2022-10-20T12:39:40.937Z,2128.00
2022-10-20T12:40:40.922Z,2128.00
2022-10-20T12:41:40.980Z,2124.00
2022-10-20T12:42:40.889Z,2140.00
2022-10-20T12:43:40.860Z,2128.00
2022-10-20T12:44:40.934Z,2180.00